createdAt,value
2018-08-04T00:00:07.659Z,16.80
2018-08-04T00:02:36.729Z,17.60
2018-08-04T00:05:06.104Z,19.60
2018-08-04T00:07:35.216Z,18.60
2018-08-04T00:10:04.794Z,19.37
2018-08-04T00:12:33.574Z,20.00
2018-08-04T00:15:02.505Z,19.97
2018-08-04T00:17:32.525Z,19.70
2018-08-04T00:20:01.521Z,19.40
2018-08-04T00:22:30.530Z,20.70
2018-08-04T00:24:59.416Z,20.07
2018-08-04T00:27:28.316Z,21.27
2018-08-04T00:29:57.309Z,21.37
2018-08-04T00:32:26.271Z,20.83
2018-08-04T00:34:55.293Z,21.93
2018-08-04T00:37:24.158Z,20.20
2018-08-04T00:39:52.984Z,21.70
2018-08-04T00:42:21.945Z,20.23
2018-08-04T00:44:50.765Z,21.23
2018-08-04T00:47:19.709Z,19.93
2018-08-04T00:49:48.780Z,20.53
2018-08-04T00:52:17.506Z,20.47
2018-08-04T00:54:46.534Z,19.97
2018-08-04T00:57:15.773Z,20.83
2018-08-04T00:59:44.467Z,20.17
2018-08-04T01:02:13.387Z,20.23
2018-08-04T01:04:42.056Z,20.97
2018-08-04T01:07:10.974Z,19.43
2018-08-04T01:09:40.096Z,19.27
2018-08-04T01:12:08.887Z,18.50
2018-08-04T01:14:37.857Z,19.70
2018-08-04T01:17:06.656Z,19.10
2018-08-04T01:19:36.174Z,20.77
2018-08-04T01:22:05.213Z,21.10
2018-08-04T01:24:34.156Z,19.97
2018-08-04T01:27:03.146Z,20.20
2018-08-04T01:29:31.902Z,19.43
2018-08-04T01:32:00.840Z,20.67
2018-08-04T01:34:29.705Z,19.43
2018-08-04T01:36:58.617Z,21.60
2018-08-04T01:39:27.404Z,22.50
2018-08-04T01:41:56.377Z,20.90
2018-08-04T01:44:25.247Z,21.10
2018-08-04T01:46:54.159Z,21.40
2018-08-04T01:49:23.078Z,21.20
2018-08-04T01:51:51.863Z,20.10
2018-08-04T01:54:20.615Z,20.93
2018-08-04T01:56:49.617Z,21.73
2018-08-04T01:59:18.430Z,21.20
2018-08-04T02:01:47.218Z,21.53
2018-08-04T02:04:16.181Z,20.20
2018-08-04T02:06:45.087Z,20.43
2018-08-04T02:09:13.873Z,20.07
2018-08-04T02:11:42.882Z,20.50
2018-08-04T02:14:11.825Z,20.30
2018-08-04T02:16:40.677Z,20.73
2018-08-04T02:19:09.657Z,19.50
2018-08-04T02:21:38.665Z,19.60
2018-08-04T02:24:07.622Z,19.73
2018-08-04T02:26:36.691Z,19.37
2018-08-04T02:29:05.653Z,20.03
2018-08-04T02:31:34.720Z,19.63
2018-08-04T02:34:03.522Z,19.83
2018-08-04T02:36:32.516Z,19.63
2018-08-04T02:39:01.618Z,18.83
2018-08-04T02:41:30.500Z,19.90
2018-08-04T02:43:59.412Z,20.30
2018-08-04T02:46:28.332Z,19.27
2018-08-04T02:48:57.172Z,19.23
2018-08-04T02:51:26.193Z,19.87
2018-08-04T02:53:55.273Z,18.90
2018-08-04T02:56:24.189Z,19.10
2018-08-04T02:58:53.043Z,19.77
2018-08-04T03:01:21.980Z,19.07
2018-08-04T03:03:50.901Z,19.20
2018-08-04T03:06:19.873Z,19.77
2018-08-04T03:08:48.805Z,18.50
2018-08-04T03:11:17.796Z,20.73
2018-08-04T03:13:46.743Z,18.90
2018-08-04T03:16:15.701Z,19.60
2018-08-04T03:18:44.711Z,18.90
2018-08-04T03:21:13.561Z,19.77
2018-08-04T03:23:42.396Z,19.30
2018-08-04T03:26:11.082Z,20.40
2018-08-04T03:28:40.185Z,18.70
2018-08-04T03:31:09.248Z,20.23
2018-08-04T03:33:38.226Z,18.97
2018-08-04T03:36:07.043Z,19.07
2018-08-04T03:38:35.853Z,18.80
2018-08-04T03:41:04.814Z,18.90
2018-08-04T03:43:33.695Z,19.73
2018-08-04T03:46:02.373Z,19.20
2018-08-04T03:48:31.216Z,20.40
2018-08-04T03:51:00.128Z,19.67
2018-08-04T03:53:29.092Z,19.27
2018-08-04T03:55:58.271Z,20.00
2018-08-04T03:58:27.292Z,19.20
2018-08-04T04:00:56.161Z,19.43
2018-08-04T04:03:25.086Z,20.73
2018-08-04T04:05:54.634Z,20.33
2018-08-04T04:08:23.759Z,21.20
2018-08-04T04:10:52.715Z,19.67
2018-08-04T04:13:21.562Z,19.70
2018-08-04T04:15:50.447Z,19.10
2018-08-04T04:18:19.460Z,19.80
2018-08-04T04:20:48.493Z,20.13
2018-08-04T04:23:17.407Z,20.03
2018-08-04T04:25:46.328Z,19.40
2018-08-04T04:28:15.286Z,19.70
2018-08-04T04:30:44.443Z,20.50
2018-08-04T04:33:13.309Z,19.07
2018-08-04T04:35:42.266Z,19.83
2018-08-04T04:38:11.259Z,19.30
2018-08-04T04:40:40.234Z,20.30
2018-08-04T04:43:09.150Z,20.37
2018-08-04T04:45:38.237Z,20.60
2018-08-04T04:48:08.170Z,20.60
2018-08-04T04:50:37.045Z,20.20
2018-08-04T04:53:05.820Z,20.80
2018-08-04T04:55:34.837Z,20.13
2018-08-04T04:58:03.695Z,21.03
2018-08-04T05:00:32.600Z,20.20
2018-08-04T05:03:01.719Z,21.30
2018-08-04T05:05:30.701Z,20.90
2018-08-04T05:07:59.499Z,20.90
2018-08-04T05:10:28.512Z,21.70
2018-08-04T05:12:57.312Z,20.90
2018-08-04T05:15:26.204Z,20.93
2018-08-04T05:17:55.184Z,20.63
2018-08-04T05:20:24.291Z,21.30
2018-08-04T05:22:53.256Z,22.80
2018-08-04T05:25:22.143Z,22.13
2018-08-04T05:27:51.070Z,21.67
2018-08-04T05:30:20.101Z,22.00
2018-08-04T05:32:49.033Z,23.03
2018-08-04T05:35:18.302Z,22.00
2018-08-04T05:37:47.188Z,23.00
2018-08-04T05:40:15.862Z,23.30
2018-08-04T05:42:44.695Z,23.80
2018-08-04T05:45:13.421Z,23.03
2018-08-04T05:47:42.666Z,24.37
2018-08-04T05:50:11.662Z,25.23
2018-08-04T05:52:40.486Z,24.97
2018-08-04T05:55:09.484Z,25.30
2018-08-04T05:57:38.430Z,25.70
2018-08-04T06:00:08.624Z,23.47
2018-08-04T06:02:37.917Z,24.10
2018-08-04T06:05:07.189Z,23.53
2018-08-04T06:07:36.181Z,24.83
2018-08-04T06:10:05.433Z,25.37
2018-08-04T06:12:34.522Z,22.90
2018-08-04T06:15:03.498Z,25.00
2018-08-04T06:17:32.486Z,24.50
2018-08-04T06:20:01.657Z,24.70
2018-08-04T06:22:30.649Z,24.60
2018-08-04T06:24:59.339Z,25.40
2018-08-04T06:27:28.924Z,25.83
2018-08-04T06:29:57.689Z,22.47
2018-08-04T06:32:27.472Z,23.63
2018-08-04T06:34:56.477Z,22.10
2018-08-04T06:37:25.306Z,22.73
2018-08-04T06:39:54.226Z,22.67
2018-08-04T06:42:22.998Z,23.30
2018-08-04T06:44:51.692Z,22.50
2018-08-04T06:47:20.538Z,24.03
2018-08-04T06:49:49.279Z,26.15
2018-08-04T06:52:18.118Z,23.37
2018-08-04T06:54:46.933Z,22.93
2018-08-04T06:57:15.849Z,24.40
2018-08-04T06:59:44.948Z,21.53
2018-08-04T07:02:13.569Z,23.07
2018-08-04T07:04:42.621Z,22.90
2018-08-04T07:07:11.685Z,22.30
2018-08-04T07:09:40.310Z,22.53
2018-08-04T07:12:09.271Z,22.57
2018-08-04T07:14:38.126Z,22.63
2018-08-04T07:17:07.066Z,22.63
2018-08-04T07:19:36.044Z,22.80
2018-08-04T07:22:04.365Z,22.07
2018-08-04T07:24:33.233Z,21.70
2018-08-04T07:27:02.037Z,22.87
2018-08-04T07:29:30.982Z,23.17
2018-08-04T07:31:59.920Z,23.77
2018-08-04T07:34:28.878Z,22.83
2018-08-04T07:36:57.829Z,24.80
2018-08-04T07:39:26.745Z,23.67
2018-08-04T07:41:55.828Z,24.83
2018-08-04T07:44:24.790Z,22.77
2018-08-04T07:46:53.946Z,20.00
2018-08-04T07:49:23.167Z,20.07
2018-08-04T07:51:52.210Z,19.10
2018-08-04T07:54:21.220Z,20.57
2018-08-04T07:56:50.281Z,20.63
2018-08-04T07:59:19.263Z,19.83
2018-08-04T08:01:48.352Z,20.47
2018-08-04T08:04:17.249Z,19.90
2018-08-04T08:06:46.158Z,20.47
2018-08-04T08:09:14.997Z,19.07
2018-08-04T08:11:43.958Z,18.30
2018-08-04T08:14:14.010Z,19.37
2018-08-04T08:16:44.107Z,17.00
2018-08-04T08:19:16.355Z,16.20
2018-08-04T08:21:45.465Z,14.80
2018-08-04T08:24:17.906Z,15.70
2018-08-04T08:26:47.798Z,14.10
2018-08-04T08:29:17.175Z,13.40
2018-08-04T08:31:47.271Z,13.70
2018-08-04T08:34:16.341Z,12.67
2018-08-04T08:36:45.321Z,15.40
2018-08-04T08:39:14.331Z,16.33
2018-08-04T08:41:43.333Z,15.67
2018-08-04T08:44:12.235Z,13.47
2018-08-04T08:46:41.144Z,11.57
2018-08-04T08:49:10.081Z,9.17
2018-08-04T08:51:39.023Z,8.90
2018-08-04T08:54:08.238Z,9.20
2018-08-04T08:56:36.856Z,7.77
2018-08-04T08:59:06.005Z,9.40
2018-08-04T09:01:34.917Z,10.37
2018-08-04T09:04:03.783Z,10.20
2018-08-04T09:06:33.702Z,10.70
2018-08-04T09:09:02.624Z,12.50
2018-08-04T09:11:31.673Z,11.57
2018-08-04T09:14:00.551Z,11.30
2018-08-04T09:16:29.906Z,10.50
2018-08-04T09:18:58.320Z,9.77
2018-08-04T09:21:27.088Z,7.33
2018-08-04T09:23:56.428Z,8.63
2018-08-04T09:26:25.543Z,8.50
2018-08-04T09:28:54.535Z,9.57
2018-08-04T09:31:23.718Z,8.77
2018-08-04T09:33:52.826Z,7.60
2018-08-04T09:36:21.704Z,9.03
2018-08-04T09:38:51.210Z,9.00
2018-08-04T09:41:20.357Z,7.87
2018-08-04T09:43:49.342Z,7.37
2018-08-04T09:46:18.206Z,6.97
2018-08-04T09:48:47.397Z,7.00
2018-08-04T09:51:16.358Z,8.00
2018-08-04T09:53:45.294Z,7.70
2018-08-04T09:56:14.416Z,7.50
2018-08-04T09:58:43.496Z,7.40
2018-08-04T10:01:17.993Z,8.00
2018-08-04T10:03:46.999Z,8.33
2018-08-04T10:06:15.985Z,8.70
2018-08-04T10:08:45.192Z,7.53
2018-08-04T10:11:14.414Z,8.10
2018-08-04T10:13:43.368Z,7.70
2018-08-04T10:16:12.389Z,7.90
2018-08-04T10:18:41.473Z,7.97
2018-08-04T10:21:10.249Z,7.73
2018-08-04T10:23:39.059Z,8.08
2018-08-04T10:26:08.200Z,8.40
2018-08-04T10:28:37.218Z,8.20
2018-08-04T10:31:06.134Z,8.40
2018-08-04T10:33:35.029Z,8.33
2018-08-04T10:36:05.176Z,8.40
2018-08-04T10:38:34.191Z,9.60
2018-08-04T10:41:02.887Z,9.33
2018-08-04T10:43:31.550Z,8.70
2018-08-04T10:46:00.213Z,8.93
2018-08-04T10:48:28.880Z,8.73
2018-08-04T10:50:57.496Z,8.00
2018-08-04T10:53:26.455Z,9.20
2018-08-04T10:55:55.093Z,9.37
2018-08-04T10:58:23.898Z,8.60
2018-08-04T11:00:52.580Z,8.37
2018-08-04T11:03:21.360Z,8.50
2018-08-04T11:05:50.118Z,8.03
2018-08-04T11:08:18.798Z,7.80
2018-08-04T11:10:47.492Z,8.30
2018-08-04T11:13:16.230Z,7.77
2018-08-04T11:15:44.952Z,10.83
2018-08-04T11:18:13.771Z,14.43
2018-08-04T11:20:42.382Z,14.97
2018-08-04T11:23:11.162Z,11.37
2018-08-04T11:25:39.890Z,15.70
2018-08-04T11:28:09.479Z,12.93
2018-08-04T11:30:38.242Z,11.17
2018-08-04T11:33:06.931Z,10.40
2018-08-04T11:35:35.753Z,12.80
2018-08-04T11:38:04.446Z,15.20
2018-08-04T11:40:33.145Z,16.17
2018-08-04T11:43:01.882Z,13.57
2018-08-04T11:45:30.643Z,14.90
2018-08-04T11:47:59.411Z,15.27
2018-08-04T11:50:28.100Z,18.20
2018-08-04T11:52:56.744Z,17.30
2018-08-04T11:55:25.453Z,15.13
2018-08-04T11:57:54.108Z,14.20
2018-08-04T12:00:22.817Z,12.60
2018-08-04T12:02:51.565Z,11.80
2018-08-04T12:05:20.235Z,11.77
2018-08-04T12:07:49.018Z,10.83
2018-08-04T12:10:17.678Z,9.87
2018-08-04T12:12:46.348Z,9.43
2018-08-04T12:15:14.997Z,8.13
2018-08-04T12:17:43.691Z,7.60
2018-08-04T12:20:12.409Z,7.23
2018-08-04T12:22:41.097Z,8.87
2018-08-04T12:25:09.809Z,8.03
2018-08-04T12:27:38.542Z,8.03
2018-08-04T12:30:08.210Z,8.53
2018-08-04T12:32:37.254Z,7.90
2018-08-04T12:35:06.651Z,7.00
2018-08-04T12:37:35.403Z,7.90
2018-08-04T12:40:04.231Z,8.63
2018-08-04T12:42:32.940Z,8.20
2018-08-04T12:45:01.630Z,8.50
2018-08-04T12:47:30.301Z,8.40
2018-08-04T12:49:59.174Z,8.30
2018-08-04T12:52:27.828Z,8.20
2018-08-04T12:54:56.478Z,7.27
2018-08-04T12:57:25.144Z,7.80
2018-08-04T12:59:53.780Z,7.30
2018-08-04T13:02:22.539Z,7.77
2018-08-04T13:04:51.181Z,7.90
2018-08-04T13:07:19.913Z,7.23
2018-08-04T13:09:48.607Z,7.40
2018-08-04T13:12:17.374Z,7.30
2018-08-04T13:14:46.132Z,7.33
2018-08-04T13:17:14.804Z,8.57
2018-08-04T13:19:43.513Z,7.70
2018-08-04T13:22:12.213Z,7.60
2018-08-04T13:24:40.869Z,7.30
2018-08-04T13:27:09.525Z,7.70
2018-08-04T13:29:38.272Z,7.90
2018-08-04T13:32:07.032Z,8.27
2018-08-04T13:34:35.657Z,7.90
2018-08-04T13:37:04.316Z,7.70
2018-08-04T13:39:32.958Z,8.83
2018-08-04T13:42:01.677Z,9.13
2018-08-04T13:44:30.385Z,8.17
2018-08-04T13:46:59.084Z,7.80
2018-08-04T13:49:27.787Z,8.17
2018-08-04T13:51:56.468Z,7.80
2018-08-04T13:54:25.235Z,8.03
2018-08-04T13:56:53.942Z,7.60
2018-08-04T13:59:22.665Z,7.93
2018-08-04T14:01:51.390Z,8.40
2018-08-04T14:04:20.329Z,8.17
2018-08-04T14:06:49.038Z,9.00
2018-08-04T14:09:17.825Z,8.40
2018-08-04T14:11:46.504Z,9.00
2018-08-04T14:14:15.560Z,8.10
2018-08-04T14:16:44.788Z,9.17
2018-08-04T14:19:13.738Z,8.23
2018-08-04T14:21:42.893Z,8.63
2018-08-04T14:24:11.918Z,8.50
2018-08-04T14:26:40.894Z,8.40
2018-08-04T14:29:09.683Z,8.70
2018-08-04T14:31:38.723Z,9.00
2018-08-04T14:34:07.933Z,7.77
2018-08-04T14:36:37.585Z,7.93
2018-08-04T14:39:09.884Z,8.20
2018-08-04T14:41:39.146Z,7.93
2018-08-04T14:44:08.067Z,9.00
2018-08-04T14:46:37.037Z,7.90
2018-08-04T14:49:05.864Z,8.40
2018-08-04T14:51:34.655Z,8.60
2018-08-04T14:54:03.463Z,7.93
2018-08-04T14:56:33.819Z,8.00
2018-08-04T14:59:02.668Z,7.87
2018-08-04T15:01:31.621Z,8.63
2018-08-04T15:04:02.115Z,8.77
2018-08-04T15:06:30.937Z,7.60
2018-08-04T15:08:59.828Z,8.10
2018-08-04T15:11:28.676Z,8.90
2018-08-04T15:14:04.434Z,8.63
2018-08-04T15:16:35.177Z,8.57
2018-08-04T15:19:08.740Z,9.03
2018-08-04T15:21:37.671Z,8.77
2018-08-04T15:24:08.970Z,8.80
2018-08-04T15:26:37.877Z,8.03
2018-08-04T15:29:06.833Z,7.90
2018-08-04T15:31:35.715Z,9.13
2018-08-04T15:34:04.787Z,8.10
2018-08-04T15:36:33.420Z,8.28
2018-08-04T15:39:02.101Z,8.73
2018-08-04T15:41:30.862Z,10.13
2018-08-04T15:43:59.527Z,10.60
2018-08-04T15:46:29.077Z,8.53
2018-08-04T15:48:57.770Z,8.37
2018-08-04T15:51:26.588Z,8.03
2018-08-04T15:53:55.277Z,8.40
2018-08-04T15:56:25.425Z,8.33
2018-08-04T15:58:54.294Z,7.80
2018-08-04T16:01:23.221Z,8.63
2018-08-04T16:03:52.164Z,8.87
2018-08-04T16:06:22.331Z,8.30
2018-08-04T16:08:52.067Z,8.00
2018-08-04T16:11:21.089Z,9.27
2018-08-04T16:13:50.092Z,8.40
2018-08-04T16:16:18.743Z,8.00
2018-08-04T16:18:47.412Z,7.77
2018-08-04T16:21:16.102Z,8.80
2018-08-04T16:23:44.797Z,7.73
2018-08-04T16:26:13.490Z,7.83
2018-08-04T16:28:42.210Z,7.50
2018-08-04T16:31:10.894Z,7.40
2018-08-04T16:33:39.660Z,7.87
2018-08-04T16:36:08.444Z,8.20
2018-08-04T16:38:37.123Z,8.07
2018-08-04T16:41:05.950Z,7.50
2018-08-04T16:43:34.609Z,8.30
2018-08-04T16:46:04.105Z,7.67
2018-08-04T16:48:32.844Z,7.37
2018-08-04T16:51:01.669Z,7.90
2018-08-04T16:53:30.299Z,7.77
2018-08-04T16:55:59.029Z,7.03
2018-08-04T16:58:27.744Z,7.23
2018-08-04T17:00:56.577Z,7.10
2018-08-04T17:03:25.229Z,8.40
2018-08-04T17:05:56.584Z,6.40
2018-08-04T17:08:25.273Z,7.03
2018-08-04T17:10:54.566Z,7.47
2018-08-04T17:13:23.274Z,6.63
2018-08-04T17:15:51.986Z,7.80
2018-08-04T17:18:20.808Z,7.77
2018-08-04T17:20:49.474Z,7.20
2018-08-04T17:23:18.317Z,8.70
2018-08-04T17:25:47.033Z,8.70
2018-08-04T17:28:15.738Z,9.10
2018-08-04T17:30:44.457Z,9.33
2018-08-04T17:33:13.190Z,8.57
2018-08-04T17:35:42.059Z,8.90
2018-08-04T17:38:10.855Z,10.17
2018-08-04T17:40:43.207Z,11.00
2018-08-04T17:43:12.189Z,11.20
2018-08-04T17:45:41.415Z,10.97
2018-08-04T17:48:10.357Z,9.90
2018-08-04T17:50:39.073Z,10.97
2018-08-04T17:53:08.139Z,10.77
2018-08-04T17:55:37.303Z,9.53
2018-08-04T17:58:06.438Z,9.87
2018-08-04T18:00:35.121Z,9.10
2018-08-04T18:03:04.033Z,10.53
2018-08-04T18:05:32.815Z,9.57
2018-08-04T18:08:01.641Z,9.93
2018-08-04T18:10:30.425Z,10.00
2018-08-04T18:12:59.252Z,8.80
2018-08-04T18:15:28.087Z,9.00
2018-08-04T18:17:56.774Z,9.20
2018-08-04T18:20:25.494Z,8.70
2018-08-04T18:22:53.845Z,8.30
2018-08-04T18:25:22.571Z,8.90
2018-08-04T18:27:51.311Z,9.20
2018-08-04T18:30:20.109Z,9.23
2018-08-04T18:32:48.729Z,10.17
2018-08-04T18:35:17.371Z,12.20
2018-08-04T18:37:46.136Z,10.27
2018-08-04T18:40:15.016Z,11.80
2018-08-04T18:42:43.767Z,10.50
2018-08-04T18:45:12.943Z,9.00
2018-08-04T18:47:41.687Z,9.70
2018-08-04T18:50:10.402Z,10.57
2018-08-04T18:52:39.065Z,11.10
2018-08-04T18:55:11.194Z,10.97
2018-08-04T18:57:44.999Z,11.23
2018-08-04T19:00:13.813Z,10.60
2018-08-04T19:02:42.461Z,12.70
2018-08-04T19:05:11.190Z,12.00
2018-08-04T19:07:39.944Z,10.77
2018-08-04T19:10:08.677Z,10.43
2018-08-04T19:12:37.433Z,10.77
2018-08-04T19:15:06.450Z,11.07
2018-08-04T19:17:35.601Z,10.10
2018-08-04T19:20:04.600Z,10.23
2018-08-04T19:22:33.307Z,10.80
2018-08-04T19:25:02.032Z,11.20
2018-08-04T19:27:30.859Z,12.20
2018-08-04T19:29:59.529Z,13.80
2018-08-04T19:32:28.314Z,13.53
2018-08-04T19:34:57.615Z,13.50
2018-08-04T19:37:26.339Z,12.80
2018-08-04T19:39:55.504Z,13.23
2018-08-04T19:42:24.170Z,14.33
2018-08-04T19:44:52.806Z,12.17
2018-08-04T19:47:21.481Z,13.60
2018-08-04T19:49:50.229Z,13.93
2018-08-04T19:52:19.032Z,12.10
2018-08-04T19:54:47.763Z,12.00
2018-08-04T19:57:16.405Z,12.43
2018-08-04T19:59:45.042Z,12.90
2018-08-04T20:02:13.793Z,12.47
2018-08-04T20:04:42.475Z,13.93
2018-08-04T20:07:11.152Z,13.87
2018-08-04T20:09:39.889Z,13.87
2018-08-04T20:12:08.605Z,15.03
2018-08-04T20:14:37.252Z,14.97
2018-08-04T20:17:06.843Z,15.60
2018-08-04T20:19:38.772Z,16.00
2018-08-04T20:22:14.489Z,16.03
2018-08-04T20:24:43.291Z,16.50
2018-08-04T20:27:12.108Z,16.90
2018-08-04T20:29:40.932Z,16.50
2018-08-04T20:32:09.708Z,16.10
2018-08-04T20:34:38.398Z,16.57
2018-08-04T20:37:07.221Z,16.30
2018-08-04T20:39:36.033Z,16.47
2018-08-04T20:42:04.799Z,16.13
2018-08-04T20:44:33.571Z,16.60
2018-08-04T20:47:02.298Z,16.10
2018-08-04T20:49:31.071Z,16.30
2018-08-04T20:51:59.872Z,15.40
2018-08-04T20:54:28.641Z,16.40
2018-08-04T20:56:57.415Z,16.57
2018-08-04T20:59:26.441Z,17.30
2018-08-04T21:02:01.573Z,16.10
2018-08-04T21:04:31.584Z,16.60
2018-08-04T21:07:00.906Z,17.30
2018-08-04T21:09:29.718Z,17.13
2018-08-04T21:11:58.498Z,18.00
2018-08-04T21:14:28.165Z,19.17
2018-08-04T21:16:57.704Z,22.97
2018-08-04T21:19:26.885Z,21.03
2018-08-04T21:21:55.601Z,19.97
2018-08-04T21:24:25.372Z,19.10
2018-08-04T21:26:54.877Z,18.80
2018-08-04T21:29:24.040Z,17.90
2018-08-04T21:31:52.789Z,17.97
2018-08-04T21:34:21.629Z,16.83
2018-08-04T21:36:50.440Z,18.20
2018-08-04T21:39:20.063Z,17.23
2018-08-04T21:41:49.174Z,17.93
2018-08-04T21:44:17.901Z,18.07
2018-08-04T21:46:48.408Z,18.27
2018-08-04T21:49:17.293Z,17.27
2018-08-04T21:51:47.368Z,18.27
2018-08-04T21:54:19.919Z,17.43
2018-08-04T21:56:45.750Z,18.37
2018-08-04T21:59:14.514Z,17.93
2018-08-04T22:01:48.511Z,17.60
2018-08-04T22:04:17.682Z,17.40
2018-08-04T22:06:51.544Z,18.20
2018-08-04T22:09:23.317Z,18.17
2018-08-04T22:11:52.120Z,16.80
2018-08-04T22:14:20.797Z,17.30
2018-08-04T22:16:49.597Z,16.00
2018-08-04T22:19:18.465Z,18.23
2018-08-04T22:21:47.404Z,17.50
2018-08-04T22:24:16.145Z,16.93
2018-08-04T22:26:44.991Z,17.07
2018-08-04T22:29:13.822Z,18.13
2018-08-04T22:31:42.793Z,18.03
2018-08-04T22:34:11.485Z,17.13
2018-08-04T22:36:40.506Z,17.23
2018-08-04T22:39:09.508Z,16.80
2018-08-04T22:41:38.472Z,16.57
2018-08-04T22:44:07.567Z,18.00
2018-08-04T22:46:36.421Z,16.87
2018-08-04T22:49:05.165Z,16.67
2018-08-04T22:51:34.134Z,17.90
2018-08-04T22:54:03.059Z,16.13
2018-08-04T22:56:32.085Z,16.20
2018-08-04T22:59:00.841Z,17.30
2018-08-04T23:01:30.031Z,15.60
2018-08-04T23:03:58.737Z,15.63
2018-08-04T23:06:27.537Z,16.57
2018-08-04T23:08:56.486Z,16.53
2018-08-04T23:11:25.332Z,17.00
2018-08-04T23:13:53.908Z,16.57
2018-08-04T23:16:22.609Z,17.10
2018-08-04T23:18:51.427Z,16.17
2018-08-04T23:21:20.308Z,17.17
2018-08-04T23:23:49.061Z,16.97
2018-08-04T23:26:18.046Z,16.87
2018-08-04T23:28:46.894Z,16.60
2018-08-04T23:31:15.717Z,15.57
2018-08-04T23:33:44.692Z,18.70
2018-08-04T23:36:13.726Z,16.03
2018-08-04T23:38:42.646Z,15.47
2018-08-04T23:41:11.453Z,17.13
2018-08-04T23:43:40.268Z,17.80
2018-08-04T23:46:09.103Z,17.47
2018-08-04T23:48:38.065Z,16.93
2018-08-04T23:51:07.022Z,16.90
2018-08-04T23:53:36.063Z,18.30
2018-08-04T23:56:05.142Z,16.90
2018-08-04T23:58:33.997Z,17.63
